Time;durP1;ratioP1;P1;durP2;ratioP2;P2;SDS_P1;SDS_P2;PMS_P1;PMS_P2;Temp;Humidity;BMP_temperature;BMP_pressure;BME280_temperature;BME280_humidity;BME280_pressure;Samples;Min_cycle;Max_cycle;Signal;HPM_P1;HPM_P2
2023/12/04 00:01:46;;;;;;;11.40;7.85;;;;;;;0.68;60.46;95090.25;4174303;28;20049;-68
2023/12/04 00:03:48;;;;;;;10.75;7.13;;;;;;;0.65;59.57;95086.09;4175792;28;20051;-69
2023/12/04 00:05:50;;;;;;;8.68;7.30;;;;;;;0.57;59.57;95093.44;4167218;28;20061;-70
2023/12/04 00:07:52;;;;;;;11.65;7.55;;;;;;;0.62;60.13;95094.00;4173287;28;20459;-68
2023/12/04 00:09:54;;;;;;;9.93;7.43;;;;;;;0.61;60.36;95102.66;4165783;28;20068;-68
2023/12/04 00:11:56;;;;;;;10.80;7.55;;;;;;;0.51;60.56;95092.03;4174801;28;20133;-69
2023/12/04 00:13:59;;;;;;;14.30;7.75;;;;;;;0.62;61.08;95099.16;4177258;28;20056;-68
2023/12/04 00:16:00;;;;;;;11.73;8.40;;;;;;;0.66;60.36;95104.97;4175986;28;20056;-68
2023/12/04 00:18:02;;;;;;;10.52;7.72;;;;;;;0.62;60.71;95106.88;4171849;28;20041;-69
2023/12/04 00:20:09;;;;;;;10.77;8.35;;;;;;;0.55;60.39;95108.16;4174018;28;20522;-68
2023/12/04 00:22:11;;;;;;;10.82;7.60;;;;;;;0.65;60.37;95111.88;4170426;28;20060;-67
2023/12/04 00:24:13;;;;;;;10.07;8.02;;;;;;;0.64;59.98;95112.78;4173900;28;20077;-68
2023/12/04 00:26:15;;;;;;;9.90;7.90;;;;;;;0.64;58.97;95130.00;4185347;28;20083;-68
2023/12/04 00:28:17;;;;;;;10.80;7.82;;;;;;;0.53;59.18;95120.31;4171153;28;20093;-68
2023/12/04 00:30:19;;;;;;;10.27;7.90;;;;;;;0.68;59.65;95122.00;4171095;28;20388;-68
2023/12/04 00:32:21;;;;;;;10.65;8.15;;;;;;;0.51;59.94;95127.31;4169324;28;20056;-68
2023/12/04 00:34:23;;;;;;;9.82;7.68;;;;;;;0.66;60.15;95130.75;4172796;28;20136;-69
2023/12/04 00:36:25;;;;;;;11.82;7.55;;;;;;;0.65;59.07;95129.94;4176574;28;20045;-69
2023/12/04 00:38:28;;;;;;;10.73;7.72;;;;;;;0.58;58.32;95132.03;4175067;28;20139;-69
2023/12/04 00:40:30;;;;;;;10.75;7.50;;;;;;;0.61;58.71;95124.09;4177096;28;20151;-68
2023/12/04 00:42:32;;;;;;;10.70;7.63;;;;;;;0.61;58.55;95128.44;4176218;28;20052;-68
2023/12/04 00:44:34;;;;;;;9.98;8.05;;;;;;;0.37;59.70;95136.66;4176706;28;20087;-68
2023/12/04 00:46:36;;;;;;;9.60;7.47;;;;;;;0.40;59.65;95138.22;4178586;28;20049;-68
2023/12/04 00:48:38;;;;;;;10.80;8.40;;;;;;;0.30;59.63;95145.66;4173939;28;20124;-67
2023/12/04 00:50:40;;;;;;;11.00;7.43;;;;;;;0.35;59.09;95141.06;4179896;28;20337;-68
2023/12/04 00:52:42;;;;;;;10.43;7.95;;;;;;;0.47;59.17;95149.84;4178636;28;20044;-68
2023/12/04 00:54:43;;;;;;;10.95;8.15;;;;;;;0.46;59.04;95153.34;4178891;28;20045;-68
2023/12/04 00:56:45;;;;;;;11.60;8.13;;;;;;;0.56;58.78;95144.19;4176196;28;20438;-69
2023/12/04 00:58:47;;;;;;;11.18;8.15;;;;;;;0.63;58.45;95160.13;4177410;28;20132;-67
2023/12/04 01:00:51;;;;;;;11.70;8.05;;;;;;;0.53;58.66;95143.50;4170163;28;20045;-67
2023/12/04 01:02:54;;;;;;;10.43;7.60;;;;;;;0.42;58.35;95156.19;4178061;28;20380;-68
2023/12/04 01:04:56;;;;;;;13.23;9.10;;;;;;;0.37;59.25;95144.38;4176920;28;20049;-67
2023/12/04 01:06:58;;;;;;;11.63;8.10;;;;;;;0.42;58.53;95159.59;4178529;28;20545;-67
2023/12/04 01:09:00;;;;;;;11.10;8.13;;;;;;;0.52;58.74;95159.91;4174963;28;20442;-66
2023/12/04 01:11:02;;;;;;;10.43;7.97;;;;;;;0.40;58.48;95156.25;4180641;28;20057;-68
2023/12/04 01:13:04;;;;;;;10.80;7.93;;;;;;;0.52;57.93;95153.00;4177593;28;20080;-69
2023/12/04 01:15:06;;;;;;;10.95;8.50;;;;;;;0.45;58.22;95150.84;4176405;28;20183;-67
2023/12/04 01:17:08;;;;;;;10.85;7.82;;;;;;;0.35;58.71;95148.78;4172283;28;20049;-68
2023/12/04 01:19:10;;;;;;;10.82;8.02;;;;;;;0.23;58.53;95154.63;4183629;28;20066;-69
2023/12/04 01:21:12;;;;;;;9.98;7.85;;;;;;;-0.49;60.54;95154.22;4176869;28;20106;-68
2023/12/04 01:23:14;;;;;;;12.02;8.95;;;;;;;-0.40;60.55;95154.66;4167361;28;20048;-69
2023/12/04 01:25:16;;;;;;;13.60;9.32;;;;;;;-0.17;60.19;95155.97;4176844;28;20383;-68
2023/12/04 01:27:18;;;;;;;11.00;8.63;;;;;;;-0.03;59.75;95151.75;4176033;28;20068;-67
2023/12/04 01:29:20;;;;;;;10.80;8.32;;;;;;;-0.11;60.42;95158.22;4177092;28;20052;-68
2023/12/04 01:31:22;;;;;;;10.30;8.45;;;;;;;0.03;60.18;95153.16;4179078;28;20080;-68
2023/12/04 01:33:24;;;;;;;12.88;8.07;;;;;;;0.18;59.28;95154.88;4178374;28;20059;-67
2023/12/04 01:35:26;;;;;;;12.20;8.55;;;;;;;0.33;59.40;95162.69;4171050;28;20060;-69
2023/12/04 01:37:28;;;;;;;12.10;7.95;;;;;;;0.42;58.40;95158.75;4169599;28;20468;-67
2023/12/04 01:39:30;;;;;;;10.10;8.05;;;;;;;0.39;57.91;95159.78;4174530;28;20049;-68
2023/12/04 01:41:32;;;;;;;10.40;7.80;;;;;;;0.42;58.05;95157.00;4174904;28;20049;-68
2023/12/04 01:43:34;;;;;;;10.93;8.27;;;;;;;0.47;57.74;95152.41;4173251;28;20132;-68
2023/12/04 01:45:36;;;;;;;10.27;8.10;;;;;;;0.31;57.78;95152.47;4178906;28;20144;-67
2023/12/04 01:47:38;;;;;;;11.18;7.88;;;;;;;0.21;58.07;95166.75;4178282;28;20349;-68
2023/12/04 01:49:41;;;;;;;9.90;7.20;;;;;;;-0.39;59.38;95161.44;4170762;28;20060;-67
2023/12/04 01:51:43;;;;;;;9.95;7.38;;;;;;;-0.23;59.60;95162.31;4177212;28;20072;-68
2023/12/04 01:53:46;;;;;;;10.05;7.68;;;;;;;-0.28;60.04;95159.13;4187865;28;20048;-68
2023/12/04 01:55:49;;;;;;;10.70;7.35;;;;;;;-0.04;58.80;95160.41;4174468;28;20045;-68
2023/12/04 01:57:53;;;;;;;10.98;7.60;;;;;;;-0.05;59.15;95151.00;4174052;28;20086;-68
2023/12/04 01:59:55;;;;;;;;;;;;;;;0.11;58.62;95160.47;4176335;28;20059;-67
2023/12/04 02:01:57;;;;;;;10.50;7.53;;;;;;;0.12;57.75;95159.56;4178290;28;19921;-67
2023/12/04 02:04:01;;;;;;;10.05;7.47;;;;;;;0.11;58.49;95165.63;4174569;28;20045;-69
2023/12/04 02:06:05;;;;;;;10.20;7.55;;;;;;;0.18;58.94;95164.38;4170657;28;20067;-68
2023/12/04 02:08:07;;;;;;;10.60;7.68;;;;;;;0.18;58.48;95164.38;4168746;28;20042;-69
2023/12/04 02:10:09;;;;;;;12.57;7.80;;;;;;;0.31;58.50;95170.50;4160510;28;20045;-69
2023/12/04 02:12:11;;;;;;;11.55;8.57;;;;;;;0.30;58.47;95168.84;4166740;28;20057;-68
2023/12/04 02:14:13;;;;;;;11.60;8.57;;;;;;;0.30;58.08;95168.84;4177627;28;20132;-68
2023/12/04 02:16:16;;;;;;;10.55;7.68;;;;;;;0.26;58.50;95177.66;4177768;28;20040;-68
2023/12/04 02:18:19;;;;;;;9.85;7.53;;;;;;;0.13;58.40;95186.97;4176265;28;20091;-68
2023/12/04 02:20:21;;;;;;;11.05;8.73;;;;;;;0.23;58.29;95184.72;4176252;28;20563;-67
2023/12/04 02:22:23;;;;;;;11.23;7.95;;;;;;;-0.03;58.67;95185.22;4171137;28;20053;-68
2023/12/04 02:24:25;;;;;;;11.75;9.00;;;;;;;0.09;59.08;95188.91;4177335;28;20446;-68
2023/12/04 02:26:57;;;;;;;12.05;9.02;;;;;;;0.22;59.02;95180.50;4172565;28;20107;-67
2023/12/04 02:29:07;;;;;;;10.88;8.32;;;;;;;0.17;58.48;95186.72;4169608;28;20128;-69
2023/12/04 02:31:10;;;;;;;9.55;7.85;;;;;;;0.06;58.29;95188.22;4171931;28;20499;-68
2023/12/04 02:33:14;;;;;;;10.93;7.78;;;;;;;0.15;57.84;95191.13;4177332;28;20385;-68
2023/12/04 02:35:20;;;;;;;9.35;6.78;;;;;;;0.26;57.68;95189.69;4172796;28;20049;-69
2023/12/04 02:37:23;;;;;;;10.80;7.78;;;;;;;0.30;57.68;95186.03;4160310;28;20127;-68
2023/12/04 02:39:25;;;;;;;10.73;8.45;;;;;;;0.17;57.92;95184.16;4171272;28;20124;-68
2023/12/04 02:41:27;;;;;;;10.50;7.75;;;;;;;0.19;58.39;95187.47;4177710;28;20057;-68
2023/12/04 02:43:29;;;;;;;10.80;8.15;;;;;;;0.13;57.67;95192.13;4176065;28;20080;-68
2023/12/04 02:45:31;;;;;;;10.23;7.60;;;;;;;-0.37;59.57;95203.38;4172466;28;20049;-68
2023/12/04 02:47:33;;;;;;;9.77;7.82;;;;;;;-0.15;59.51;95203.94;4172222;28;20049;-67
2023/12/04 02:49:35;;;;;;;11.77;7.45;;;;;;;-0.41;59.40;95200.13;4170155;28;20053;-68
2023/12/04 02:51:41;;;;;;;9.80;7.43;;;;;;;-0.24;59.19;95200.09;4174248;28;20045;-68
2023/12/04 02:53:43;;;;;;;12.70;6.90;;;;;;;-0.28;59.18;95195.16;4177696;28;20064;-68
2023/12/04 02:55:44;;;;;;;10.32;8.13;;;;;;;-0.15;58.92;95206.50;4165161;28;20136;-67
2023/12/04 02:57:46;;;;;;;10.52;8.15;;;;;;;-0.25;59.15;95195.03;4174770;28;20294;-68
2023/12/04 02:59:48;;;;;;;10.15;7.75;;;;;;;-0.37;59.16;95183.63;4178251;28;20408;-68
2023/12/04 03:01:50;;;;;;;10.73;7.70;;;;;;;-0.37;59.17;95190.50;4175506;28;20052;-69
2023/12/04 03:03:52;;;;;;;9.73;7.50;;;;;;;-0.32;58.92;95193.66;4171321;28;20235;-68
2023/12/04 03:05:54;;;;;;;10.40;7.72;;;;;;;-0.32;58.94;95194.53;4173517;28;20049;-66
2023/12/04 03:07:56;;;;;;;9.55;6.93;;;;;;;-0.36;58.75;95185.28;4171170;28;20072;-68
2023/12/04 03:09:58;;;;;;;12.57;8.60;;;;;;;-0.35;58.79;95191.28;4169485;28;20128;-67
2023/12/04 03:12:00;;;;;;;11.98;7.60;;;;;;;-0.28;58.82;95192.59;4164757;28;20103;-67
2023/12/04 03:14:02;;;;;;;10.05;7.43;;;;;;;-0.22;57.95;95195.66;4172290;28;20052;-68
2023/12/04 03:16:04;;;;;;;9.60;7.07;;;;;;;-0.27;58.08;95196.84;4171960;28;20404;-67
2023/12/04 03:18:06;;;;;;;10.13;7.75;;;;;;;-0.32;57.98;95185.94;4172773;28;20131;-66
2023/12/04 03:20:12;;;;;;;9.63;7.65;;;;;;;-0.28;57.91;95195.16;4172991;28;20052;-67
2023/12/04 03:22:14;;;;;;;11.15;7.72;;;;;;;-0.27;58.01;95202.81;4173660;28;20430;-69
2023/12/04 03:24:16;;;;;;;9.60;7.63;;;;;;;-0.30;57.62;95192.69;4165279;28;20040;-68
2023/12/04 03:26:18;;;;;;;11.70;8.20;;;;;;;-0.27;58.36;95191.69;4176988;28;20053;-68
2023/12/04 03:28:20;;;;;;;9.65;7.28;;;;;;;-0.29;57.74;95201.25;4177113;28;20041;-69
2023/12/04 03:30:22;;;;;;;10.05;7.55;;;;;;;-0.49;58.68;95195.41;4177126;28;20061;-67
2023/12/04 03:32:23;;;;;;;9.07;7.10;;;;;;;-0.49;58.51;95197.16;4170489;28;20107;-67
2023/12/04 03:34:26;;;;;;;10.15;7.28;;;;;;;-0.59;58.52;95201.94;4172988;28;20060;-67
2023/12/04 03:36:28;;;;;;;9.43;7.70;;;;;;;-0.78;59.59;95196.06;4173071;28;20550;-68
2023/12/04 03:38:29;;;;;;;12.35;8.00;;;;;;;-0.87;59.66;95192.22;4176958;28;20118;-70
2023/12/04 03:40:32;;;;;;;10.63;7.45;;;;;;;-0.98;60.14;95208.19;4173752;28;20084;-68
2023/12/04 03:42:34;;;;;;;10.30;7.30;;;;;;;-1.02;60.46;95195.56;4171707;28;20049;-68
2023/12/04 03:44:36;;;;;;;9.23;7.35;;;;;;;-0.89;59.99;95214.63;4171548;28;20094;-69
2023/12/04 03:46:38;;;;;;;10.13;7.65;;;;;;;-0.78;60.17;95208.94;4177702;28;20057;-67
2023/12/04 03:48:40;;;;;;;11.02;8.27;;;;;;;-0.67;59.91;95220.34;4173259;28;20043;-68
2023/12/04 03:50:42;;;;;;;11.20;7.53;;;;;;;-0.52;59.14;95220.47;4171530;28;20061;-69
2023/12/04 03:52:44;;;;;;;10.55;7.72;;;;;;;-0.58;58.86;95218.19;4171643;28;20056;-68
2023/12/04 03:54:46;;;;;;;10.68;8.05;;;;;;;-0.71;59.41;95215.41;4168093;28;20045;-68
2023/12/04 03:56:48;;;;;;;12.02;8.20;;;;;;;-0.68;59.38;95216.09;4191953;28;20044;-69
2023/12/04 03:58:50;;;;;;;10.60;7.95;;;;;;;-0.51;59.36;95225.53;4176572;28;20056;-67
2023/12/04 04:00:52;;;;;;;10.00;8.10;;;;;;;-0.46;58.72;95220.16;4177698;28;20076;-69
2023/12/04 04:02:54;;;;;;;10.07;7.30;;;;;;;-0.60;58.96;95220.00;4175681;28;20088;-69
2023/12/04 04:04:56;;;;;;;14.57;7.80;;;;;;;-0.81;59.58;95216.81;4165238;28;20089;-68
2023/12/04 04:06:58;;;;;;;11.02;7.68;;;;;;;-0.73;59.07;95217.25;4166681;28;20715;-68
2023/12/04 04:09:00;;;;;;;10.70;7.82;;;;;;;-0.92;59.94;95225.06;4177693;28;20061;-69
2023/12/04 04:11:02;;;;;;;8.15;6.85;;;;;;;-0.84;59.48;95228.06;4177654;28;20049;-69
2023/12/04 04:13:04;;;;;;;11.25;7.15;;;;;;;-0.78;59.22;95222.63;4176484;28;20049;-69
2023/12/04 04:15:06;;;;;;;9.65;7.18;;;;;;;-0.92;59.68;95225.91;4168033;28;20045;-69
2023/12/04 04:17:08;;;;;;;11.52;7.57;;;;;;;-0.74;59.30;95225.88;4174632;28;20045;-67
2023/12/04 04:19:10;;;;;;;10.38;7.13;;;;;;;-1.06;59.87;95228.31;4171158;28;20103;-68
2023/12/04 04:21:15;;;;;;;11.30;7.30;;;;;;;-1.36;60.16;95236.59;4179567;28;20369;-68
2023/12/04 04:23:17;;;;;;;10.80;7.82;;;;;;;-1.32;61.20;95233.00;4172419;28;20152;-69
2023/12/04 04:25:21;;;;;;;12.95;7.72;;;;;;;-1.08;60.50;95235.28;4172436;28;20065;-68
2023/12/04 04:27:23;;;;;;;10.77;7.53;;;;;;;-1.20;60.22;95246.19;4177854;28;20060;-67
2023/12/04 04:29:25;;;;;;;12.32;9.10;;;;;;;-1.26;60.99;95247.28;4173839;28;20044;-67
2023/12/04 04:31:27;;;;;;;9.65;7.53;;;;;;;-1.42;61.31;95247.19;4179127;28;20048;-68
2023/12/04 04:33:29;;;;;;;10.25;8.23;;;;;;;-1.11;61.05;95241.41;4175547;28;20476;-68
2023/12/04 04:35:30;;;;;;;12.57;8.18;;;;;;;-1.38;61.41;95253.84;4179718;28;20052;-70
2023/12/04 04:37:32;;;;;;;12.77;7.63;;;;;;;-1.36;60.96;95246.88;4175374;28;20057;-69
2023/12/04 04:39:34;;;;;;;14.50;8.38;;;;;;;-1.38;61.00;95253.84;4176080;28;20057;-68
2023/12/04 04:41:36;;;;;;;12.05;8.60;;;;;;;-1.25;61.20;95254.09;4173943;28;20053;-69
2023/12/04 04:43:38;;;;;;;11.70;8.43;;;;;;;-1.29;60.82;95253.41;4178324;28;20102;-66
2023/12/04 04:45:40;;;;;;;11.80;8.80;;;;;;;-1.16;60.95;95253.66;4162756;28;20045;-65
2023/12/04 04:47:42;;;;;;;11.52;9.20;;;;;;;-1.51;61.69;95263.88;4179598;28;20223;-66
2023/12/04 04:49:44;;;;;;;12.00;8.43;;;;;;;-1.77;62.11;95264.25;4175736;28;20067;-67
2023/12/04 04:51:46;;;;;;;14.75;9.63;;;;;;;-1.91;62.59;95275.19;4180528;28;20093;-68
2023/12/04 04:53:48;;;;;;;13.65;9.23;;;;;;;-2.01;63.42;95273.91;4170910;28;20173;-67
2023/12/04 04:55:50;;;;;;;13.80;9.45;;;;;;;-2.24;64.27;95280.91;4194592;28;20052;-67
2023/12/04 04:57:52;;;;;;;12.35;8.90;;;;;;;-1.94;64.10;95275.31;4178630;28;20502;-67
2023/12/04 04:59:54;;;;;;;14.50;9.18;;;;;;;-1.70;63.05;95274.19;4168444;28;20054;-66
2023/12/04 05:01:56;;;;;;;11.30;8.20;;;;;;;-1.78;62.45;95272.88;4163847;28;20123;-68
2023/12/04 05:03:58;;;;;;;11.27;8.50;;;;;;;-1.80;62.34;95278.09;4178454;28;20131;-69
2023/12/04 05:06:00;;;;;;;13.23;8.80;;;;;;;-1.69;62.35;95272.44;4179760;28;20056;-68
2023/12/04 05:08:03;;;;;;;12.38;8.45;;;;;;;-1.48;62.14;95270.63;4167872;28;20053;-68
2023/12/04 05:10:05;;;;;;;12.40;8.55;;;;;;;-1.35;61.16;95268.31;4161463;28;20473;-69
2023/12/04 05:12:09;;;;;;;13.60;8.10;;;;;;;-1.60;61.92;95272.00;4167311;28;20191;-70
2023/12/04 05:14:11;;;;;;;12.15;8.40;;;;;;;-1.49;62.14;95266.38;4174888;28;20052;-68
2023/12/04 05:16:14;;;;;;;13.00;9.40;;;;;;;-1.62;62.12;95283.28;4178148;28;20045;-69
2023/12/04 05:18:16;;;;;;;13.68;9.25;;;;;;;-1.67;63.23;95286.06;4167683;28;20535;-69
2023/12/04 05:20:18;;;;;;;15.38;10.07;;;;;;;-1.65;63.20;95281.69;4176041;28;21181;-67
2023/12/04 05:22:20;;;;;;;13.80;10.30;;;;;;;-1.77;63.07;95290.78;4180109;28;20084;-67
2023/12/04 05:24:22;;;;;;;16.45;9.88;;;;;;;-1.92;63.48;95288.91;4173955;28;20045;-68
2023/12/04 05:26:24;;;;;;;12.80;9.25;;;;;;;-2.11;63.88;95292.31;4171500;28;20232;-69
2023/12/04 05:28:26;;;;;;;12.32;8.70;;;;;;;-1.87;63.65;95285.25;4169327;28;20263;-69
2023/12/04 05:30:27;;;;;;;14.18;8.18;;;;;;;-1.63;62.52;95273.88;4170658;28;20385;-69
2023/12/04 05:32:29;;;;;;;10.75;8.40;;;;;;;-1.33;62.12;95279.34;4176503;28;20562;-69
2023/12/04 05:34:31;;;;;;;11.93;9.25;;;;;;;-1.10;61.55;95278.22;4169228;28;20045;-69
2023/12/04 05:36:33;;;;;;;10.90;8.80;;;;;;;-1.05;60.94;95278.84;4180433;28;20056;-68
2023/12/04 05:38:35;;;;;;;11.10;8.50;;;;;;;-1.03;60.62;95284.75;4179002;28;20178;-70
2023/12/04 05:40:37;;;;;;;13.75;8.98;;;;;;;-1.20;60.98;95287.31;4173418;28;20045;-70
2023/12/04 05:42:39;;;;;;;12.05;9.10;;;;;;;-1.43;61.99;95296.94;4190046;28;20056;-71
2023/12/04 05:44:41;;;;;;;12.15;8.50;;;;;;;-1.31;62.10;95291.22;4172462;28;20132;-68
2023/12/04 05:46:43;;;;;;;12.68;8.88;;;;;;;-1.09;61.11;95285.03;4172347;28;20053;-68
2023/12/04 05:48:45;;;;;;;13.07;8.85;;;;;;;-0.96;61.11;95286.09;4175987;28;20041;-70
2023/12/04 05:50:47;;;;;;;12.35;8.90;;;;;;;-0.73;60.66;95291.84;4175368;28;20476;-70
2023/12/04 05:52:48;;;;;;;13.45;9.50;;;;;;;-0.56;60.30;95294.44;4173847;28;20045;-69
2023/12/04 05:54:51;;;;;;;13.27;8.52;;;;;;;-0.53;59.19;95293.44;4172639;28;20128;-69
2023/12/04 05:56:53;;;;;;;13.02;9.48;;;;;;;-0.58;59.44;95295.41;4171354;28;20389;-69
2023/12/04 05:58:55;;;;;;;12.38;8.85;;;;;;;-0.66;59.16;95291.47;4173473;28;20041;-69
2023/12/04 06:00:57;;;;;;;13.50;9.18;;;;;;;-0.62;59.66;95297.31;4173801;28;20072;-69
2023/12/04 06:02:59;;;;;;;11.65;9.55;;;;;;;-0.64;59.83;95297.38;4171174;28;20049;-70
2023/12/04 06:05:01;;;;;;;12.73;9.00;;;;;;;-1.10;60.95;95303.94;4169365;28;20049;-70
2023/12/04 06:07:03;;;;;;;13.20;9.30;;;;;;;-0.97;60.81;95309.31;4172384;28;20060;-71
2023/12/04 06:09:06;;;;;;;12.52;8.77;;;;;;;-0.93;60.30;95295.41;4166094;28;20045;-69
2023/12/04 06:11:08;;;;;;;11.45;8.80;;;;;;;-0.69;60.42;95303.66;4165500;28;20500;-72
2023/12/04 06:13:10;;;;;;;11.35;9.23;;;;;;;-0.68;59.52;95295.03;4168220;28;20103;-69
2023/12/04 06:15:12;;;;;;;13.55;9.95;;;;;;;-0.65;59.96;95305.16;4175397;28;20118;-71
2023/12/04 06:17:14;;;;;;;13.98;8.75;;;;;;;-0.64;59.65;95302.53;4177013;28;20139;-68
2023/12/04 06:19:16;;;;;;;12.20;9.30;;;;;;;-0.58;59.92;95306.53;4177790;28;20180;-70
2023/12/04 06:21:18;;;;;;;13.93;8.80;;;;;;;-0.45;59.46;95302.44;4171515;28;20053;-70
2023/12/04 06:23:21;;;;;;;13.32;9.40;;;;;;;-0.42;59.23;95304.84;4178589;28;20183;-70
2023/12/04 06:25:23;;;;;;;17.83;9.70;;;;;;;-0.36;59.48;95308.88;4166035;28;20361;-69
2023/12/04 06:27:25;;;;;;;16.85;11.05;;;;;;;-0.28;59.00;95306.75;4163068;28;20147;-68
2023/12/04 06:29:27;;;;;;;16.15;11.13;;;;;;;-0.28;59.43;95298.16;4178142;28;20100;-69
2023/12/04 06:31:29;;;;;;;13.43;9.60;;;;;;;-0.24;58.95;95315.13;4177670;28;20122;-70
2023/12/04 06:33:32;;;;;;;16.20;10.18;;;;;;;-0.28;58.97;95319.59;4176619;28;20077;-69
2023/12/04 06:35:34;;;;;;;15.00;10.25;;;;;;;-0.22;58.53;95319.28;4176406;28;20103;-67
2023/12/04 06:37:39;;;;;;;15.80;10.43;;;;;;;-0.35;58.70;95323.38;4168485;28;20055;-68
2023/12/04 06:39:41;;;;;;;14.98;10.32;;;;;;;-0.30;58.92;95315.44;4178189;28;20098;-69
2023/12/04 06:41:44;;;;;;;13.15;9.93;;;;;;;-0.27;58.45;95328.97;4176820;28;20549;-69
2023/12/04 06:43:46;;;;;;;15.23;10.45;;;;;;;-0.25;58.37;95324.59;4175015;28;20411;-70
2023/12/04 06:45:51;;;;;;;15.13;10.63;;;;;;;-0.20;58.53;95332.06;4176433;28;20106;-70
2023/12/04 06:47:54;;;;;;;14.95;10.55;;;;;;;-0.09;58.21;95337.50;4176170;28;20127;-67
2023/12/04 06:49:56;;;;;;;14.27;10.10;;;;;;;-0.28;58.48;95347.94;4172583;28;20068;-70
2023/12/04 06:52:00;;;;;;;18.75;11.05;;;;;;;-0.85;59.77;95355.88;4178327;28;20240;-69
2023/12/04 06:54:03;;;;;;;16.45;10.60;;;;;;;-0.93;60.85;95352.00;4175854;28;20049;-69
2023/12/04 06:56:05;;;;;;;13.05;9.68;;;;;;;-0.78;60.54;95346.09;4166055;28;20052;-70
2023/12/04 06:58:07;;;;;;;14.30;9.77;;;;;;;-0.68;59.89;95341.34;4177412;28;20052;-68
2023/12/04 07:00:14;;;;;;;13.02;9.18;;;;;;;-0.55;59.42;95339.84;4176747;28;20145;-68
2023/12/04 07:02:23;;;;;;;15.93;11.23;;;;;;;-0.38;59.37;95343.31;4165819;28;20061;-71
2023/12/04 07:04:25;;;;;;;13.95;10.32;;;;;;;-0.24;58.69;95344.28;4175617;28;20095;-71
2023/12/04 07:06:27;;;;;;;13.10;9.40;;;;;;;-0.19;58.45;95350.94;4176808;28;20118;-69
2023/12/04 07:08:29;;;;;;;13.52;10.25;;;;;;;-0.15;58.22;95350.72;4168199;28;20087;-70
2023/12/04 07:10:31;;;;;;;14.18;10.18;;;;;;;-0.13;58.51;95348.03;4170455;28;20056;-70
2023/12/04 07:12:39;;;;;;;18.85;10.55;;;;;;;-0.26;58.80;95355.56;4184134;28;20464;-70
2023/12/04 07:14:42;;;;;;;14.02;10.38;;;;;;;-0.18;58.46;95355.19;4176606;28;20578;-68
2023/12/04 07:16:44;;;;;;;13.77;9.13;;;;;;;-0.12;57.89;95353.13;4170956;28;20411;-69
2023/12/04 07:18:46;;;;;;;13.93;9.05;;;;;;;-0.02;57.96;95343.19;4177708;28;20130;-68
2023/12/04 07:20:48;;;;;;;12.80;9.48;;;;;;;0.13;57.79;95349.28;4175293;28;20095;-70
2023/12/04 07:22:50;;;;;;;13.80;9.45;;;;;;;0.16;57.52;95355.09;4178562;28;20045;-69
2023/12/04 07:24:52;;;;;;;15.15;9.93;;;;;;;0.00;57.87;95354.25;4177128;28;20087;-71
2023/12/04 07:26:53;;;;;;;13.65;10.15;;;;;;;0.19;58.11;95348.97;4177584;28;20053;-71
2023/12/04 07:28:56;;;;;;;14.98;9.63;;;;;;;0.40;56.98;95363.28;4173970;28;20480;-71
2023/12/04 07:30:57;;;;;;;13.23;9.10;;;;;;;0.47;56.67;95350.06;4164677;28;20049;-69
2023/12/04 07:32:59;;;;;;;11.57;8.77;;;;;;;0.54;55.83;95347.09;4162305;28;20059;-68
2023/12/04 07:35:01;;;;;;;13.20;8.88;;;;;;;0.58;55.92;95353.75;4164002;28;20052;-69
2023/12/04 07:37:03;;;;;;;11.48;8.82;;;;;;;0.88;55.66;95352.16;4164951;28;20139;-71
2023/12/04 07:39:06;;;;;;;17.55;10.90;;;;;;;0.84;55.82;95366.13;4164395;28;20052;-70
2023/12/04 07:41:08;;;;;;;15.33;9.37;;;;;;;0.46;56.02;95351.00;4163821;28;20053;-69
2023/12/04 07:43:10;;;;;;;17.75;11.15;;;;;;;0.24;56.62;95361.59;4179697;28;20076;-71
2023/12/04 07:45:13;;;;;;;13.07;8.50;;;;;;;0.33;56.29;95364.53;4165597;28;20055;-70
2023/12/04 07:47:17;;;;;;;11.48;7.97;;;;;;;0.33;55.28;95364.53;4181978;28;20540;-69
2023/12/04 07:49:19;;;;;;;11.90;8.60;;;;;;;0.44;54.98;95348.50;4167239;28;20129;-70
2023/12/04 07:51:21;;;;;;;10.85;8.57;;;;;;;0.51;55.26;95349.81;4183006;28;20048;-69
2023/12/04 07:53:23;;;;;;;15.40;9.20;;;;;;;0.65;54.70;95350.84;4173276;28;20541;-70
2023/12/04 07:55:25;;;;;;;12.02;8.35;;;;;;;0.35;55.13;95342.09;4181231;28;20132;-70
2023/12/04 07:57:27;;;;;;;12.40;8.85;;;;;;;0.23;55.83;95355.63;4180039;28;20049;-70
2023/12/04 07:59:29;;;;;;;12.10;7.93;;;;;;;0.44;55.30;95363.16;4181109;28;20131;-71
2023/12/04 08:01:31;;;;;;;13.73;8.70;;;;;;;0.30;55.71;95364.72;4180261;28;20534;-68
2023/12/04 08:03:33;;;;;;;12.45;9.52;;;;;;;0.12;56.79;95366.47;4178694;28;20481;-70
2023/12/04 08:05:35;;;;;;;11.93;8.23;;;;;;;0.53;56.06;95368.63;4169654;28;20255;-69
2023/12/04 08:07:37;;;;;;;15.40;8.43;;;;;;;0.88;54.36;95367.63;4179377;28;20490;-71
2023/12/04 08:09:39;;;;;;;12.68;7.55;;;;;;;1.16;53.08;95372.97;4161179;28;20104;-70
2023/12/04 08:11:41;;;;;;;13.48;8.70;;;;;;;1.22;53.11;95371.78;4169855;28;20061;-72
2023/12/04 08:13:43;;;;;;;14.02;8.70;;;;;;;0.54;53.56;95374.63;4168322;28;20109;-71
2023/12/04 08:15:45;;;;;;;9.88;7.40;;;;;;;0.12;54.22;95369.06;4168513;28;20484;-71
2023/12/04 08:17:47;;;;;;;8.40;6.38;;;;;;;0.24;54.06;95366.75;4171182;28;20061;-71
2023/12/04 08:19:49;;;;;;;13.45;8.23;;;;;;;0.67;52.93;95356.72;4167786;28;20431;-70
2023/12/04 08:21:54;;;;;;;11.05;6.68;;;;;;;0.91;51.22;95364.91;4169069;28;20111;-71
2023/12/04 08:23:59;;;;;;;7.88;5.50;;;;;;;0.78;50.50;95359.59;4168435;28;20496;-68
2023/12/04 08:26:01;;;;;;;8.23;5.43;;;;;;;0.77;50.74;95363.88;4177148;28;20083;-70
2023/12/04 08:28:05;;;;;;;7.88;5.70;;;;;;;0.71;50.24;95392.63;4171059;28;20053;-72
2023/12/04 08:30:08;;;;;;;8.95;5.90;;;;;;;-0.15;51.95;95373.03;4175268;28;20538;-70
2023/12/04 08:32:10;;;;;;;8.95;6.35;;;;;;;0.23;52.77;95365.91;4177650;28;20562;-71
2023/12/04 08:34:11;;;;;;;8.07;6.00;;;;;;;0.69;51.62;95367.81;4172131;28;20049;-69
2023/12/04 08:36:14;;;;;;;15.48;6.03;;;;;;;1.08;50.37;95375.13;4179229;28;20246;-71
2023/12/04 08:38:16;;;;;;;6.72;5.18;;;;;;;1.23;49.42;95366.53;4174347;28;20051;-70
2023/12/04 08:40:18;;;;;;;9.13;5.53;;;;;;;1.10;49.40;95364.69;4170553;28;20049;-70
2023/12/04 08:42:20;;;;;;;8.80;6.05;;;;;;;1.05;49.75;95367.53;4169757;28;20498;-69
2023/12/04 08:44:24;;;;;;;14.38;5.97;;;;;;;1.33;49.92;95358.25;4174164;28;20068;-69
2023/12/04 08:46:27;;;;;;;7.50;5.40;;;;;;;1.46;47.76;95368.72;4177951;28;20080;-69
2023/12/04 08:48:29;;;;;;;11.07;5.63;;;;;;;1.53;47.54;95370.88;4178514;28;20052;-69
2023/12/04 08:50:32;;;;;;;7.55;6.07;;;;;;;1.59;47.44;95365.38;4180347;28;20056;-71
2023/12/04 08:52:33;;;;;;;6.75;5.43;;;;;;;1.70;47.24;95363.91;4170786;28;20423;-69
2023/12/04 08:54:39;;;;;;;6.20;5.05;;;;;;;1.82;47.41;95368.34;4177821;28;20053;-69
2023/12/04 08:56:41;;;;;;;12.02;7.05;;;;;;;1.13;48.87;95354.22;4172797;28;20055;-70
2023/12/04 08:58:44;;;;;;;11.23;6.95;;;;;;;0.98;49.92;95363.66;4170649;28;20067;-70
2023/12/04 09:00:46;;;;;;;9.98;6.35;;;;;;;1.05;50.23;95343.50;4178657;28;20144;-71
2023/12/04 09:02:48;;;;;;;10.63;5.55;;;;;;;0.80;50.14;95350.03;4162411;28;20045;-69
2023/12/04 09:04:59;;;;;;;14.70;8.23;;;;;;;0.12;53.01;95357.94;4174835;28;20127;-68
2023/12/04 09:07:03;;;;;;;12.02;6.32;;;;;;;0.53;52.59;95353.16;4170139;28;20446;-69
2023/12/04 09:09:08;;;;;;;9.90;7.00;;;;;;;0.51;52.34;95357.56;4173981;28;20056;-69
2023/12/04 09:11:14;;;;;;;8.90;6.70;;;;;;;-0.21;53.65;95354.44;4168825;28;20087;-69
2023/12/04 09:13:24;;;;;;;14.63;10.10;;;;;;;-0.32;54.08;95337.84;4176485;28;20084;-69
2023/12/04 09:15:26;;;;;;;11.98;7.93;;;;;;;-0.16;53.38;95353.38;4172847;28;20049;-70
2023/12/04 09:17:28;;;;;;;10.80;6.82;;;;;;;-0.30;53.58;95352.31;4175384;28;20096;-71
2023/12/04 09:19:40;;;;;;;7.60;4.88;;;;;;;-0.31;53.89;95349.81;4180129;28;20071;-68
2023/12/04 09:21:44;;;;;;;9.05;5.88;;;;;;;0.04;54.42;95349.75;4177999;28;20091;-70
2023/12/04 09:23:49;;;;;;;7.10;5.03;;;;;;;0.18;53.37;95344.72;4167563;28;20447;-70
2023/12/04 09:25:52;;;;;;;10.20;6.97;;;;;;;0.10;52.79;95344.28;4178884;28;20073;-70
2023/12/04 09:27:53;;;;;;;15.75;8.45;;;;;;;0.07;53.79;95339.31;4178594;28;20067;-71
2023/12/04 09:29:55;;;;;;;10.45;6.85;;;;;;;0.53;52.88;95331.72;4170326;28;20075;-69
2023/12/04 09:31:57;;;;;;;10.02;6.45;;;;;;;0.50;52.82;95334.47;4164798;28;20052;-71
2023/12/04 09:33:59;;;;;;;11.00;6.47;;;;;;;0.27;53.60;95331.34;4179501;28;20048;-70